sensor_id;sensor_type;location;lat;lon;timestamp;temperature;humidity
51811;DHT22;52468;40.116;18.296;2023-04-25T00:00:59;15.50;63.20
51811;DHT22;52468;40.116;18.296;2023-04-25T00:03:27;15.60;63.20
51811;DHT22;52468;40.116;18.296;2023-04-25T00:05:54;15.60;63.10
51811;DHT22;52468;40.116;18.296;2023-04-25T00:08:25;15.60;63.00
51811;DHT22;52468;40.116;18.296;2023-04-25T00:10:52;15.60;62.90
51811;DHT22;52468;40.116;18.296;2023-04-25T00:13:20;15.60;62.80
51811;DHT22;52468;40.116;18.296;2023-04-25T00:15:49;15.60;62.70
51811;DHT22;52468;40.116;18.296;2023-04-25T00:18:17;15.60;62.70
51811;DHT22;52468;40.116;18.296;2023-04-25T00:20:46;15.50;63.00
51811;DHT22;52468;40.116;18.296;2023-04-25T00:23:17;15.50;62.90
51811;DHT22;52468;40.116;18.296;2023-04-25T00:25:47;15.50;63.10
51811;DHT22;52468;40.116;18.296;2023-04-25T00:28:15;15.40;63.40
51811;DHT22;52468;40.116;18.296;2023-04-25T00:30:43;15.30;63.70
51811;DHT22;52468;40.116;18.296;2023-04-25T00:33:11;15.10;64.10
51811;DHT22;52468;40.116;18.296;2023-04-25T00:35:39;15.00;64.70
51811;DHT22;52468;40.116;18.296;2023-04-25T00:38:07;14.90;65.20
51811;DHT22;52468;40.116;18.296;2023-04-25T00:40:35;14.80;65.60
51811;DHT22;52468;40.116;18.296;2023-04-25T00:43:03;14.80;65.80
51811;DHT22;52468;40.116;18.296;2023-04-25T00:45:31;14.80;66.00
51811;DHT22;52468;40.116;18.296;2023-04-25T00:48:00;14.70;66.00
51811;DHT22;52468;40.116;18.296;2023-04-25T00:50:28;14.70;66.30
51811;DHT22;52468;40.116;18.296;2023-04-25T00:52:56;14.80;66.40
51811;DHT22;52468;40.116;18.296;2023-04-25T00:55:24;14.80;66.80
51811;DHT22;52468;40.116;18.296;2023-04-25T00:57:51;14.80;66.60
51811;DHT22;52468;40.116;18.296;2023-04-25T01:00:19;14.80;67.20
51811;DHT22;52468;40.116;18.296;2023-04-25T01:02:48;14.90;67.40
51811;DHT22;52468;40.116;18.296;2023-04-25T01:05:16;14.80;67.90
51811;DHT22;52468;40.116;18.296;2023-04-25T01:07:46;14.80;68.00
51811;DHT22;52468;40.116;18.296;2023-04-25T01:10:14;14.90;68.10
51811;DHT22;52468;40.116;18.296;2023-04-25T01:12:42;14.90;68.10
51811;DHT22;52468;40.116;18.296;2023-04-25T01:15:10;14.90;68.30
51811;DHT22;52468;40.116;18.296;2023-04-25T01:17:38;14.80;68.50
51811;DHT22;52468;40.116;18.296;2023-04-25T01:20:09;14.80;68.70
51811;DHT22;52468;40.116;18.296;2023-04-25T01:22:38;14.70;68.70
51811;DHT22;52468;40.116;18.296;2023-04-25T01:25:07;14.80;68.80
51811;DHT22;52468;40.116;18.296;2023-04-25T01:27:36;14.70;68.80
51811;DHT22;52468;40.116;18.296;2023-04-25T01:30:05;14.60;69.10
51811;DHT22;52468;40.116;18.296;2023-04-25T01:32:34;14.50;69.20
51811;DHT22;52468;40.116;18.296;2023-04-25T01:35:07;14.50;69.50
51811;DHT22;52468;40.116;18.296;2023-04-25T01:37:41;14.40;69.90
51811;DHT22;52468;40.116;18.296;2023-04-25T01:40:12;14.30;70.20
51811;DHT22;52468;40.116;18.296;2023-04-25T01:42:42;14.20;70.50
51811;DHT22;52468;40.116;18.296;2023-04-25T01:45:11;14.20;70.80
51811;DHT22;52468;40.116;18.296;2023-04-25T01:47:39;14.10;71.30
51811;DHT22;52468;40.116;18.296;2023-04-25T01:50:08;14.10;71.50
51811;DHT22;52468;40.116;18.296;2023-04-25T01:52:37;14.10;71.50
51811;DHT22;52468;40.116;18.296;2023-04-25T01:55:05;14.00;71.80
51811;DHT22;52468;40.116;18.296;2023-04-25T01:57:35;14.00;72.00
51811;DHT22;52468;40.116;18.296;2023-04-25T02:00:05;14.00;72.30
51811;DHT22;52468;40.116;18.296;2023-04-25T02:02:40;13.90;72.50
51811;DHT22;52468;40.116;18.296;2023-04-25T02:05:23;13.90;72.80
51811;DHT22;52468;40.116;18.296;2023-04-25T02:07:51;13.90;72.80
51811;DHT22;52468;40.116;18.296;2023-04-25T02:10:19;13.90;72.80
51811;DHT22;52468;40.116;18.296;2023-04-25T02:13:04;13.90;73.40
51811;DHT22;52468;40.116;18.296;2023-04-25T02:15:42;13.90;73.60
51811;DHT22;52468;40.116;18.296;2023-04-25T02:18:15;13.90;73.60
51811;DHT22;52468;40.116;18.296;2023-04-25T02:20:46;13.90;73.90
51811;DHT22;52468;40.116;18.296;2023-04-25T02:23:14;13.90;74.00
51811;DHT22;52468;40.116;18.296;2023-04-25T02:25:42;13.90;74.00
51811;DHT22;52468;40.116;18.296;2023-04-25T02:28:11;13.90;74.30
51811;DHT22;52468;40.116;18.296;2023-04-25T02:30:38;14.00;74.40
51811;DHT22;52468;40.116;18.296;2023-04-25T02:33:06;14.00;74.30
51811;DHT22;52468;40.116;18.296;2023-04-25T02:35:36;13.90;74.70
51811;DHT22;52468;40.116;18.296;2023-04-25T02:38:03;13.90;74.70
51811;DHT22;52468;40.116;18.296;2023-04-25T02:40:33;13.90;75.00
51811;DHT22;52468;40.116;18.296;2023-04-25T02:43:01;13.90;75.50
51811;DHT22;52468;40.116;18.296;2023-04-25T02:45:28;13.90;75.40
51811;DHT22;52468;40.116;18.296;2023-04-25T02:47:56;13.90;75.60
51811;DHT22;52468;40.116;18.296;2023-04-25T02:50:24;14.00;75.70
51811;DHT22;52468;40.116;18.296;2023-04-25T02:52:52;13.90;76.20
51811;DHT22;52468;40.116;18.296;2023-04-25T02:55:26;14.00;76.00
51811;DHT22;52468;40.116;18.296;2023-04-25T02:57:55;14.00;76.20
51811;DHT22;52468;40.116;18.296;2023-04-25T03:00:37;14.00;76.20
51811;DHT22;52468;40.116;18.296;2023-04-25T03:03:06;14.00;76.30
51811;DHT22;52468;40.116;18.296;2023-04-25T03:05:34;14.00;76.30
51811;DHT22;52468;40.116;18.296;2023-04-25T03:08:02;14.00;76.40
51811;DHT22;52468;40.116;18.296;2023-04-25T03:10:32;14.00;76.10
51811;DHT22;52468;40.116;18.296;2023-04-25T03:13:04;13.90;76.30
51811;DHT22;52468;40.116;18.296;2023-04-25T03:15:32;13.80;76.40
51811;DHT22;52468;40.116;18.296;2023-04-25T03:18:00;13.80;76.40
51811;DHT22;52468;40.116;18.296;2023-04-25T03:20:28;13.80;76.20
51811;DHT22;52468;40.116;18.296;2023-04-25T03:22:56;13.80;76.20
51811;DHT22;52468;40.116;18.296;2023-04-25T03:25:23;13.70;76.40
51811;DHT22;52468;40.116;18.296;2023-04-25T03:27:51;13.70;76.40
51811;DHT22;52468;40.116;18.296;2023-04-25T03:30:19;13.60;76.50
51811;DHT22;52468;40.116;18.296;2023-04-25T03:32:48;13.60;76.80
51811;DHT22;52468;40.116;18.296;2023-04-25T03:35:17;13.60;76.70
51811;DHT22;52468;40.116;18.296;2023-04-25T03:37:45;13.60;76.60
51811;DHT22;52468;40.116;18.296;2023-04-25T03:40:18;13.60;76.50
51811;DHT22;52468;40.116;18.296;2023-04-25T03:43:04;13.50;76.70
51811;DHT22;52468;40.116;18.296;2023-04-25T03:45:33;13.60;76.90
51811;DHT22;52468;40.116;18.296;2023-04-25T03:48:01;13.50;77.00
51811;DHT22;52468;40.116;18.296;2023-04-25T03:50:30;13.50;77.10
51811;DHT22;52468;40.116;18.296;2023-04-25T03:52:58;13.40;77.20
51811;DHT22;52468;40.116;18.296;2023-04-25T03:55:28;13.40;77.40
51811;DHT22;52468;40.116;18.296;2023-04-25T03:57:58;13.50;77.30
51811;DHT22;52468;40.116;18.296;2023-04-25T04:00:26;13.50;77.50
51811;DHT22;52468;40.116;18.296;2023-04-25T04:02:54;13.50;77.60
51811;DHT22;52468;40.116;18.296;2023-04-25T04:05:22;13.60;77.90
51811;DHT22;52468;40.116;18.296;2023-04-25T04:07:55;13.60;77.90
51811;DHT22;52468;40.116;18.296;2023-04-25T04:10:23;13.60;78.10
51811;DHT22;52468;40.116;18.296;2023-04-25T04:12:51;13.60;78.10
51811;DHT22;52468;40.116;18.296;2023-04-25T04:15:19;13.70;78.10
51811;DHT22;52468;40.116;18.296;2023-04-25T04:17:48;13.70;78.20
51811;DHT22;52468;40.116;18.296;2023-04-25T04:20:18;13.80;78.30
51811;DHT22;52468;40.116;18.296;2023-04-25T04:22:46;13.90;78.50
51811;DHT22;52468;40.116;18.296;2023-04-25T04:25:15;14.00;78.50
51811;DHT22;52468;40.116;18.296;2023-04-25T04:28:06;14.10;78.60
51811;DHT22;52468;40.116;18.296;2023-04-25T04:30:49;14.20;78.50
51811;DHT22;52468;40.116;18.296;2023-04-25T04:33:19;14.40;78.50
51811;DHT22;52468;40.116;18.296;2023-04-25T04:35:52;14.70;78.20
51811;DHT22;52468;40.116;18.296;2023-04-25T04:38:21;15.00;77.70
51811;DHT22;52468;40.116;18.296;2023-04-25T04:40:51;15.20;77.60
51811;DHT22;52468;40.116;18.296;2023-04-25T04:43:46;15.50;77.30
51811;DHT22;52468;40.116;18.296;2023-04-25T04:46:43;15.70;76.90
51811;DHT22;52468;40.116;18.296;2023-04-25T04:49:23;15.90;76.40
51811;DHT22;52468;40.116;18.296;2023-04-25T04:52:11;16.00;76.20
51811;DHT22;52468;40.116;18.296;2023-04-25T04:54:55;16.10;75.80
51811;DHT22;52468;40.116;18.296;2023-04-25T04:57:51;16.30;75.30
51811;DHT22;52468;40.116;18.296;2023-04-25T05:00:33;16.40;75.20
51811;DHT22;52468;40.116;18.296;2023-04-25T05:03:27;16.50;74.60
51811;DHT22;52468;40.116;18.296;2023-04-25T05:06:33;16.80;73.80
51811;DHT22;52468;40.116;18.296;2023-04-25T05:09:27;17.00;72.20
51811;DHT22;52468;40.116;18.296;2023-04-25T05:12:33;17.10;71.00
51811;DHT22;52468;40.116;18.296;2023-04-25T05:15:07;17.20;71.00
51811;DHT22;52468;40.116;18.296;2023-04-25T05:17:57;17.40;70.90
51811;DHT22;52468;40.116;18.296;2023-04-25T05:20:50;17.60;70.00
51811;DHT22;52468;40.116;18.296;2023-04-25T05:23:37;17.60;69.60
51811;DHT22;52468;40.116;18.296;2023-04-25T05:26:13;17.80;69.10
51811;DHT22;52468;40.116;18.296;2023-04-25T05:28:52;18.00;68.20
51811;DHT22;52468;40.116;18.296;2023-04-25T05:31:52;18.10;67.70
51811;DHT22;52468;40.116;18.296;2023-04-25T05:34:20;18.10;67.00
51811;DHT22;52468;40.116;18.296;2023-04-25T05:37:01;18.20;66.60
51811;DHT22;52468;40.116;18.296;2023-04-25T05:39:30;18.40;66.20
51811;DHT22;52468;40.116;18.296;2023-04-25T05:42:21;18.50;65.40
51811;DHT22;52468;40.116;18.296;2023-04-25T05:45:15;18.70;65.20
51811;DHT22;52468;40.116;18.296;2023-04-25T05:48:05;18.90;64.60
51811;DHT22;52468;40.116;18.296;2023-04-25T05:51:05;19.10;63.70
51811;DHT22;52468;40.116;18.296;2023-04-25T05:53:51;19.30;62.20
51811;DHT22;52468;40.116;18.296;2023-04-25T05:56:19;19.40;62.10
51811;DHT22;52468;40.116;18.296;2023-04-25T05:58:51;19.50;61.10
51811;DHT22;52468;40.116;18.296;2023-04-25T06:01:19;19.50;60.20
51811;DHT22;52468;40.116;18.296;2023-04-25T06:03:46;19.70;59.80
51811;DHT22;52468;40.116;18.296;2023-04-25T06:06:17;19.80;58.30
51811;DHT22;52468;40.116;18.296;2023-04-25T06:08:46;19.90;57.30
51811;DHT22;52468;40.116;18.296;2023-04-25T06:11:14;20.00;56.80
51811;DHT22;52468;40.116;18.296;2023-04-25T06:13:42;20.10;56.10
51811;DHT22;52468;40.116;18.296;2023-04-25T06:16:11;20.20;54.60
51811;DHT22;52468;40.116;18.296;2023-04-25T06:18:40;20.30;54.50
51811;DHT22;52468;40.116;18.296;2023-04-25T06:21:09;20.40;53.00
51811;DHT22;52468;40.116;18.296;2023-04-25T06:23:37;20.50;52.20
51811;DHT22;52468;40.116;18.296;2023-04-25T06:26:07;20.60;51.70
51811;DHT22;52468;40.116;18.296;2023-04-25T06:28:38;20.70;51.30
51811;DHT22;52468;40.116;18.296;2023-04-25T06:31:06;20.60;50.70
51811;DHT22;52468;40.116;18.296;2023-04-25T06:33:34;20.70;50.70
51811;DHT22;52468;40.116;18.296;2023-04-25T06:36:04;20.70;49.90
51811;DHT22;52468;40.116;18.296;2023-04-25T06:38:32;20.70;49.30
51811;DHT22;52468;40.116;18.296;2023-04-25T06:41:00;20.80;49.00
51811;DHT22;52468;40.116;18.296;2023-04-25T06:43:31;20.90;48.40
51811;DHT22;52468;40.116;18.296;2023-04-25T06:46:24;21.00;48.00
51811;DHT22;52468;40.116;18.296;2023-04-25T06:48:53;21.10;47.60
51811;DHT22;52468;40.116;18.296;2023-04-25T06:51:21;21.30;46.50
51811;DHT22;52468;40.116;18.296;2023-04-25T06:53:51;21.40;46.60
51811;DHT22;52468;40.116;18.296;2023-04-25T06:56:28;21.50;46.90
51811;DHT22;52468;40.116;18.296;2023-04-25T06:59:12;21.80;46.50
51811;DHT22;52468;40.116;18.296;2023-04-25T07:01:41;22.00;45.40
51811;DHT22;52468;40.116;18.296;2023-04-25T07:04:14;22.10;45.20
51811;DHT22;52468;40.116;18.296;2023-04-25T07:06:48;22.30;44.40
51811;DHT22;52468;40.116;18.296;2023-04-25T07:09:21;22.50;43.20
51811;DHT22;52468;40.116;18.296;2023-04-25T07:11:50;23.00;42.50
51811;DHT22;52468;40.116;18.296;2023-04-25T07:14:18;23.40;42.00
51811;DHT22;52468;40.116;18.296;2023-04-25T07:16:46;23.80;41.60
51811;DHT22;52468;40.116;18.296;2023-04-25T07:19:14;24.00;40.30
51811;DHT22;52468;40.116;18.296;2023-04-25T07:21:42;23.80;38.80
51811;DHT22;52468;40.116;18.296;2023-04-25T07:24:11;23.50;38.90
51811;DHT22;52468;40.116;18.296;2023-04-25T07:26:44;23.00;39.40
51811;DHT22;52468;40.116;18.296;2023-04-25T07:29:35;22.90;40.10
51811;DHT22;52468;40.116;18.296;2023-04-25T07:32:04;23.10;40.10
51811;DHT22;52468;40.116;18.296;2023-04-25T07:34:32;23.10;40.80
51811;DHT22;52468;40.116;18.296;2023-04-25T07:37:05;23.20;40.50
51811;DHT22;52468;40.116;18.296;2023-04-25T07:39:41;23.40;40.00
51811;DHT22;52468;40.116;18.296;2023-04-25T07:42:10;24.00;39.60
51811;DHT22;52468;40.116;18.296;2023-04-25T07:44:41;24.50;37.60
51811;DHT22;52468;40.116;18.296;2023-04-25T07:47:12;24.70;36.40
51811;DHT22;52468;40.116;18.296;2023-04-25T07:49:41;25.00;36.20
51811;DHT22;52468;40.116;18.296;2023-04-25T07:52:09;25.10;35.20
51811;DHT22;52468;40.116;18.296;2023-04-25T07:54:40;25.30;35.20
51811;DHT22;52468;40.116;18.296;2023-04-25T07:57:16;25.50;34.80
51811;DHT22;52468;40.116;18.296;2023-04-25T07:59:46;25.50;34.50
51811;DHT22;52468;40.116;18.296;2023-04-25T08:02:14;25.50;34.50
51811;DHT22;52468;40.116;18.296;2023-04-25T08:04:41;25.30;34.20
51811;DHT22;52468;40.116;18.296;2023-04-25T08:07:12;24.90;33.90
51811;DHT22;52468;40.116;18.296;2023-04-25T08:09:51;24.50;34.40
51811;DHT22;52468;40.116;18.296;2023-04-25T08:12:26;24.50;34.80
51811;DHT22;52468;40.116;18.296;2023-04-25T08:14:54;24.50;35.00
51811;DHT22;52468;40.116;18.296;2023-04-25T08:17:24;24.60;34.80
51811;DHT22;52468;40.116;18.296;2023-04-25T08:19:52;24.30;34.70
51811;DHT22;52468;40.116;18.296;2023-04-25T08:22:30;24.00;35.00
51811;DHT22;52468;40.116;18.296;2023-04-25T08:25:15;23.70;35.50
51811;DHT22;52468;40.116;18.296;2023-04-25T08:27:43;23.50;36.50
51811;DHT22;52468;40.116;18.296;2023-04-25T08:30:12;23.50;36.90
51811;DHT22;52468;40.116;18.296;2023-04-25T08:32:41;23.50;36.90
51811;DHT22;52468;40.116;18.296;2023-04-25T08:35:38;23.60;37.00
51811;DHT22;52468;40.116;18.296;2023-04-25T08:38:07;24.00;36.70
51811;DHT22;52468;40.116;18.296;2023-04-25T08:40:38;24.40;36.00
51811;DHT22;52468;40.116;18.296;2023-04-25T08:43:13;24.90;35.80
51811;DHT22;52468;40.116;18.296;2023-04-25T08:45:42;25.10;34.50
51811;DHT22;52468;40.116;18.296;2023-04-25T08:48:16;25.10;34.60
51811;DHT22;52468;40.116;18.296;2023-04-25T08:50:46;25.10;34.20
51811;DHT22;52468;40.116;18.296;2023-04-25T08:53:17;25.10;34.50
51811;DHT22;52468;40.116;18.296;2023-04-25T08:55:48;25.00;35.10
51811;DHT22;52468;40.116;18.296;2023-04-25T08:58:18;24.80;34.90
51811;DHT22;52468;40.116;18.296;2023-04-25T09:00:47;24.60;35.30
51811;DHT22;52468;40.116;18.296;2023-04-25T09:03:17;24.80;35.30
51811;DHT22;52468;40.116;18.296;2023-04-25T09:05:48;25.40;35.10
51811;DHT22;52468;40.116;18.296;2023-04-25T09:08:16;26.00;34.30
51811;DHT22;52468;40.116;18.296;2023-04-25T09:10:44;26.30;34.10
51811;DHT22;52468;40.116;18.296;2023-04-25T09:13:14;26.30;33.20
51811;DHT22;52468;40.116;18.296;2023-04-25T09:16:08;26.10;32.90
51811;DHT22;52468;40.116;18.296;2023-04-25T09:18:48;25.80;33.60
51811;DHT22;52468;40.116;18.296;2023-04-25T09:21:22;26.00;34.20
51811;DHT22;52468;40.116;18.296;2023-04-25T09:23:50;26.10;33.30
51811;DHT22;52468;40.116;18.296;2023-04-25T09:26:20;26.00;33.00
51811;DHT22;52468;40.116;18.296;2023-04-25T09:29:05;25.80;32.70
51811;DHT22;52468;40.116;18.296;2023-04-25T09:31:36;25.60;33.40
51811;DHT22;52468;40.116;18.296;2023-04-25T09:34:05;25.70;33.30
51811;DHT22;52468;40.116;18.296;2023-04-25T09:36:42;25.90;32.80
51811;DHT22;52468;40.116;18.296;2023-04-25T09:39:37;26.40;32.50
51811;DHT22;52468;40.116;18.296;2023-04-25T09:42:14;26.50;32.10
51811;DHT22;52468;40.116;18.296;2023-04-25T09:44:46;26.50;32.00
51811;DHT22;52468;40.116;18.296;2023-04-25T09:47:15;26.40;32.60
51811;DHT22;52468;40.116;18.296;2023-04-25T09:49:45;26.30;32.30
51811;DHT22;52468;40.116;18.296;2023-04-25T09:52:16;26.30;32.50
51811;DHT22;52468;40.116;18.296;2023-04-25T09:55:00;26.50;33.00
51811;DHT22;52468;40.116;18.296;2023-04-25T09:57:33;26.80;32.60
51811;DHT22;52468;40.116;18.296;2023-04-25T10:00:02;27.10;32.20
51811;DHT22;52468;40.116;18.296;2023-04-25T10:02:42;27.20;32.20
51811;DHT22;52468;40.116;18.296;2023-04-25T10:05:27;27.10;33.10
51811;DHT22;52468;40.116;18.296;2023-04-25T10:07:55;27.50;34.00
51811;DHT22;52468;40.116;18.296;2023-04-25T10:10:25;28.00;33.30
51811;DHT22;52468;40.116;18.296;2023-04-25T10:12:56;27.80;33.20
51811;DHT22;52468;40.116;18.296;2023-04-25T10:15:24;27.90;33.20
51811;DHT22;52468;40.116;18.296;2023-04-25T10:17:53;27.50;33.20
51811;DHT22;52468;40.116;18.296;2023-04-25T10:20:22;27.10;32.20
51811;DHT22;52468;40.116;18.296;2023-04-25T10:22:54;26.60;32.90
51811;DHT22;52468;40.116;18.296;2023-04-25T10:25:24;26.50;33.50
51811;DHT22;52468;40.116;18.296;2023-04-25T10:27:53;26.30;33.80
51811;DHT22;52468;40.116;18.296;2023-04-25T10:30:21;26.00;34.10
51811;DHT22;52468;40.116;18.296;2023-04-25T10:32:49;25.90;34.20
51811;DHT22;52468;40.116;18.296;2023-04-25T10:35:23;25.80;34.70
51811;DHT22;52468;40.116;18.296;2023-04-25T10:38:10;25.80;35.10
51811;DHT22;52468;40.116;18.296;2023-04-25T10:40:40;26.00;34.70
51811;DHT22;52468;40.116;18.296;2023-04-25T10:45:59;26.40;34.80
51811;DHT22;52468;40.116;18.296;2023-04-25T10:48:31;26.10;33.30
51811;DHT22;52468;40.116;18.296;2023-04-25T10:53:37;25.80;33.70
51811;DHT22;52468;40.116;18.296;2023-04-25T10:56:17;25.80;34.20
51811;DHT22;52468;40.116;18.296;2023-04-25T10:58:46;26.20;33.80
51811;DHT22;52468;40.116;18.296;2023-04-25T11:01:19;26.40;34.10
51811;DHT22;52468;40.116;18.296;2023-04-25T11:03:47;26.30;33.20
51811;DHT22;52468;40.116;18.296;2023-04-25T11:06:32;26.30;32.70
51811;DHT22;52468;40.116;18.296;2023-04-25T11:09:11;26.00;31.40
51811;DHT22;52468;40.116;18.296;2023-04-25T11:11:42;25.90;32.90
51811;DHT22;52468;40.116;18.296;2023-04-25T11:14:09;26.00;34.70
51811;DHT22;52468;40.116;18.296;2023-04-25T11:16:37;25.90;35.00
51811;DHT22;52468;40.116;18.296;2023-04-25T11:19:05;25.90;35.10
51811;DHT22;52468;40.116;18.296;2023-04-25T11:21:33;25.90;35.60
51811;DHT22;52468;40.116;18.296;2023-04-25T11:24:01;26.00;34.30
51811;DHT22;52468;40.116;18.296;2023-04-25T11:26:30;25.80;32.60
51811;DHT22;52468;40.116;18.296;2023-04-25T11:28:59;25.50;31.70
51811;DHT22;52468;40.116;18.296;2023-04-25T11:31:30;25.20;32.70
51811;DHT22;52468;40.116;18.296;2023-04-25T11:33:58;25.30;34.00
51811;DHT22;52468;40.116;18.296;2023-04-25T11:36:26;25.60;34.50
51811;DHT22;52468;40.116;18.296;2023-04-25T11:38:54;25.80;33.60
51811;DHT22;52468;40.116;18.296;2023-04-25T11:41:22;26.20;33.20
51811;DHT22;52468;40.116;18.296;2023-04-25T11:43:50;26.20;33.10
51811;DHT22;52468;40.116;18.296;2023-04-25T11:46:19;26.30;32.20
51811;DHT22;52468;40.116;18.296;2023-04-25T11:48:47;26.40;31.70
51811;DHT22;52468;40.116;18.296;2023-04-25T11:51:17;26.20;32.20
51811;DHT22;52468;40.116;18.296;2023-04-25T11:53:45;26.20;33.60
51811;DHT22;52468;40.116;18.296;2023-04-25T11:56:13;26.20;34.10
51811;DHT22;52468;40.116;18.296;2023-04-25T11:59:03;26.40;33.50
51811;DHT22;52468;40.116;18.296;2023-04-25T12:01:32;26.20;32.20
51811;DHT22;52468;40.116;18.296;2023-04-25T12:04:20;26.30;32.80
51811;DHT22;52468;40.116;18.296;2023-04-25T12:06:51;26.50;32.30
51811;DHT22;52468;40.116;18.296;2023-04-25T12:09:32;26.50;32.00
51811;DHT22;52468;40.116;18.296;2023-04-25T12:12:01;26.20;33.10
51811;DHT22;52468;40.116;18.296;2023-04-25T12:14:34;26.10;32.90
51811;DHT22;52468;40.116;18.296;2023-04-25T12:17:04;26.00;34.00
51811;DHT22;52468;40.116;18.296;2023-04-25T12:19:37;26.20;34.00
51811;DHT22;52468;40.116;18.296;2023-04-25T12:22:25;26.40;33.40
51811;DHT22;52468;40.116;18.296;2023-04-25T12:24:53;26.20;33.00
51811;DHT22;52468;40.116;18.296;2023-04-25T12:27:21;25.80;33.20
51811;DHT22;52468;40.116;18.296;2023-04-25T12:29:53;25.80;33.70
51811;DHT22;52468;40.116;18.296;2023-04-25T12:32:22;26.10;34.30
51811;DHT22;52468;40.116;18.296;2023-04-25T12:34:50;26.40;33.10
51811;DHT22;52468;40.116;18.296;2023-04-25T12:37:18;26.10;32.50
51811;DHT22;52468;40.116;18.296;2023-04-25T12:39:46;26.10;32.80
51811;DHT22;52468;40.116;18.296;2023-04-25T12:42:13;26.40;32.50
51811;DHT22;52468;40.116;18.296;2023-04-25T12:44:41;26.30;32.50
51811;DHT22;52468;40.116;18.296;2023-04-25T12:47:09;26.50;32.10
51811;DHT22;52468;40.116;18.296;2023-04-25T12:49:37;26.50;32.40
51811;DHT22;52468;40.116;18.296;2023-04-25T12:52:05;26.50;33.30
51811;DHT22;52468;40.116;18.296;2023-04-25T12:54:33;26.60;33.10
51811;DHT22;52468;40.116;18.296;2023-04-25T12:57:01;26.50;33.30
51811;DHT22;52468;40.116;18.296;2023-04-25T12:59:30;26.30;34.00
51811;DHT22;52468;40.116;18.296;2023-04-25T13:01:58;26.80;33.40
51811;DHT22;52468;40.116;18.296;2023-04-25T13:04:26;27.70;32.40
51811;DHT22;52468;40.116;18.296;2023-04-25T13:06:53;28.10;31.80
51811;DHT22;52468;40.116;18.296;2023-04-25T13:09:21;28.40;31.10
51811;DHT22;52468;40.116;18.296;2023-04-25T13:11:49;28.50;32.00
51811;DHT22;52468;40.116;18.296;2023-04-25T13:14:17;28.70;32.00
51811;DHT22;52468;40.116;18.296;2023-04-25T13:16:45;28.90;31.70
51811;DHT22;52468;40.116;18.296;2023-04-25T13:19:13;29.00;31.20
51811;DHT22;52468;40.116;18.296;2023-04-25T13:21:41;29.20;31.20
51811;DHT22;52468;40.116;18.296;2023-04-25T13:24:08;29.00;31.40
51811;DHT22;52468;40.116;18.296;2023-04-25T13:26:36;28.70;31.40
51811;DHT22;52468;40.116;18.296;2023-04-25T13:29:04;28.70;31.60
51811;DHT22;52468;40.116;18.296;2023-04-25T13:31:32;29.20;30.90
51811;DHT22;52468;40.116;18.296;2023-04-25T13:34:00;29.80;30.40
51811;DHT22;52468;40.116;18.296;2023-04-25T13:36:27;30.10;29.30
51811;DHT22;52468;40.116;18.296;2023-04-25T13:38:55;31.30;27.90
51811;DHT22;52468;40.116;18.296;2023-04-25T13:41:23;32.60;26.10
51811;DHT22;52468;40.116;18.296;2023-04-25T13:43:51;33.20;25.30
51811;DHT22;52468;40.116;18.296;2023-04-25T13:46:19;33.80;25.60
51811;DHT22;52468;40.116;18.296;2023-04-25T13:51:26;35.00;23.50
51811;DHT22;52468;40.116;18.296;2023-04-25T13:53:54;35.50;23.00
51811;DHT22;52468;40.116;18.296;2023-04-25T13:56:22;35.60;22.60
51811;DHT22;52468;40.116;18.296;2023-04-25T13:58:50;35.60;22.60
51811;DHT22;52468;40.116;18.296;2023-04-25T14:01:19;36.00;22.50
51811;DHT22;52468;40.116;18.296;2023-04-25T14:06:16;36.80;21.40
51811;DHT22;52468;40.116;18.296;2023-04-25T14:08:50;36.60;21.50
51811;DHT22;52468;40.116;18.296;2023-04-25T14:16:16;37.50;20.90
51811;DHT22;52468;40.116;18.296;2023-04-25T14:18:44;37.50;20.80
51811;DHT22;52468;40.116;18.296;2023-04-25T14:21:12;37.50;20.80
51811;DHT22;52468;40.116;18.296;2023-04-25T14:23:39;37.40;21.00
51811;DHT22;52468;40.116;18.296;2023-04-25T14:26:07;37.30;21.30
51811;DHT22;52468;40.116;18.296;2023-04-25T14:28:39;37.60;20.80
51811;DHT22;52468;40.116;18.296;2023-04-25T14:31:07;37.30;21.10
51811;DHT22;52468;40.116;18.296;2023-04-25T14:33:35;37.00;21.40
51811;DHT22;52468;40.116;18.296;2023-04-25T14:36:03;37.20;21.40
51811;DHT22;52468;40.116;18.296;2023-04-25T14:38:30;37.50;21.30
51811;DHT22;52468;40.116;18.296;2023-04-25T14:40:58;38.10;20.50
51811;DHT22;52468;40.116;18.296;2023-04-25T14:43:26;37.90;20.60
51811;DHT22;52468;40.116;18.296;2023-04-25T14:45:54;37.50;20.80
51811;DHT22;52468;40.116;18.296;2023-04-25T14:48:24;37.50;21.10
51811;DHT22;52468;40.116;18.296;2023-04-25T14:50:52;37.00;21.40
51811;DHT22;52468;40.116;18.296;2023-04-25T14:53:19;36.50;21.90
51811;DHT22;52468;40.116;18.296;2023-04-25T14:55:47;36.00;22.50
51811;DHT22;52468;40.116;18.296;2023-04-25T14:58:16;35.60;23.30
51811;DHT22;52468;40.116;18.296;2023-04-25T15:03:12;33.60;25.50
51811;DHT22;52468;40.116;18.296;2023-04-25T15:05:40;31.90;27.40
51811;DHT22;52468;40.116;18.296;2023-04-25T15:08:08;30.80;29.00
51811;DHT22;52468;40.116;18.296;2023-04-25T15:10:37;30.10;30.10
51811;DHT22;52468;40.116;18.296;2023-04-25T15:13:05;29.60;31.50
51811;DHT22;52468;40.116;18.296;2023-04-25T15:15:33;30.60;30.60
51811;DHT22;52468;40.116;18.296;2023-04-25T15:18:02;31.00;29.90
51811;DHT22;52468;40.116;18.296;2023-04-25T15:20:30;30.80;30.50
51811;DHT22;52468;40.116;18.296;2023-04-25T15:22:58;31.80;29.70
51811;DHT22;52468;40.116;18.296;2023-04-25T15:25:26;33.00;28.10
51811;DHT22;52468;40.116;18.296;2023-04-25T15:27:55;33.60;27.30
51811;DHT22;52468;40.116;18.296;2023-04-25T15:30:23;34.30;26.50
51811;DHT22;52468;40.116;18.296;2023-04-25T15:32:51;34.80;26.20
51811;DHT22;52468;40.116;18.296;2023-04-25T15:35:19;35.00;26.10
51811;DHT22;52468;40.116;18.296;2023-04-25T15:37:47;35.00;25.70
51811;DHT22;52468;40.116;18.296;2023-04-25T15:40:15;34.50;26.40
51811;DHT22;52468;40.116;18.296;2023-04-25T15:42:51;34.40;26.60
51811;DHT22;52468;40.116;18.296;2023-04-25T15:45:23;34.80;26.60
51811;DHT22;52468;40.116;18.296;2023-04-25T15:47:54;35.40;25.90
51811;DHT22;52468;40.116;18.296;2023-04-25T15:50:23;35.60;25.70
51811;DHT22;52468;40.116;18.296;2023-04-25T15:52:51;35.40;25.90
51811;DHT22;52468;40.116;18.296;2023-04-25T15:55:19;35.50;26.00
51811;DHT22;52468;40.116;18.296;2023-04-25T15:57:53;35.60;25.70
51811;DHT22;52468;40.116;18.296;2023-04-25T16:00:21;35.40;25.60